ADDS METAR Data

Data at: 0513 UTC 19 Jan 2018

METAR for:KLCI (Laconia Muni, NH, US)
Text:KLCI 190456Z AUTO 00000KT 10SM CLR M09/M10 A2988 RMK AO2 SLPNO T10891100 400001117 FZRANO
Temperature: -8.9°C ( 16°F)
Dewpoint:-10.0°C ( 14°F) [RH = 92%]
Pressure (altimeter):29.88 inches Hg (1011.9 mb)
Winds:calm
Visibility:10 or more sm (16+ km)
Ceiling:at least 12,000 feet AGL
Clouds:sky clear below 12,000 feet AGL
QC Flag:automated observation with no human augmentation